createdAt,value
2023-05-03T00:00:09.418Z,15.07
2023-05-03T00:02:39.357Z,20.53
2023-05-03T00:05:13.180Z,14.70
2023-05-03T00:07:44.821Z,11.23
2023-05-03T00:10:16.118Z,12.83
2023-05-03T00:12:45.518Z,15.87
2023-05-03T00:15:13.736Z,15.43
2023-05-03T00:17:42.350Z,17.47
2023-05-03T00:20:12.983Z,18.43
2023-05-03T00:22:41.216Z,16.03
2023-05-03T00:25:10.569Z,13.90
2023-05-03T00:27:38.832Z,16.33
2023-05-03T00:30:08.327Z,11.90
2023-05-03T00:32:37.172Z,11.63
2023-05-03T00:35:05.753Z,13.97
2023-05-03T00:37:35.723Z,14.70
2023-05-03T00:40:05.252Z,16.97
2023-05-03T00:42:36.451Z,11.67
2023-05-03T00:45:06.481Z,19.00
2023-05-03T00:47:35.269Z,13.17
2023-05-03T00:50:03.894Z,14.53
2023-05-03T00:52:32.744Z,12.17
2023-05-03T00:55:03.305Z,12.20
2023-05-03T00:57:32.498Z,12.67
2023-05-03T01:00:01.577Z,16.43
2023-05-03T01:02:30.788Z,17.80
2023-05-03T01:04:59.120Z,14.97
2023-05-03T01:07:42.502Z,13.80
2023-05-03T01:10:23.032Z,12.83
2023-05-03T01:12:58.270Z,16.00
2023-05-03T01:15:40.884Z,15.53
2023-05-03T01:18:13.726Z,13.90
2023-05-03T01:20:48.503Z,11.03
2023-05-03T01:23:29.760Z,11.70
2023-05-03T01:25:59.585Z,11.63
2023-05-03T01:28:27.894Z,12.23
2023-05-03T01:30:58.236Z,12.47
2023-05-03T01:33:35.051Z,11.70
2023-05-03T01:36:12.300Z,13.13
2023-05-03T01:38:41.415Z,12.63
2023-05-03T01:41:14.941Z,17.90
2023-05-03T01:43:45.169Z,10.13
2023-05-03T01:46:14.315Z,9.37
2023-05-03T01:48:43.186Z,9.90
2023-05-03T01:51:11.549Z,14.70
2023-05-03T01:53:41.816Z,11.07
2023-05-03T01:56:11.826Z,11.37
2023-05-03T01:58:40.112Z,11.00
2023-05-03T02:01:08.561Z,9.80
2023-05-03T02:03:37.037Z,10.83
2023-05-03T02:06:05.977Z,8.90
2023-05-03T02:08:34.299Z,12.30
2023-05-03T02:11:02.971Z,9.27
2023-05-03T02:13:33.086Z,10.07
2023-05-03T02:16:01.236Z,14.60
2023-05-03T02:18:31.793Z,15.23
2023-05-03T02:21:00.368Z,16.37
2023-05-03T02:23:28.626Z,17.00
2023-05-03T02:25:56.981Z,19.10
2023-05-03T02:28:25.433Z,13.23
2023-05-03T02:30:55.326Z,7.87
2023-05-03T02:33:23.973Z,10.73
2023-05-03T02:35:52.138Z,14.00
2023-05-03T02:38:20.299Z,8.20
2023-05-03T02:40:48.489Z,17.30
2023-05-03T02:43:16.808Z,12.73
2023-05-03T02:45:44.941Z,11.47
2023-05-03T02:48:16.454Z,9.80
2023-05-03T02:50:44.912Z,8.00
2023-05-03T02:53:12.991Z,14.97
2023-05-03T02:55:41.432Z,12.93
2023-05-03T02:58:10.316Z,18.03
2023-05-03T03:00:38.540Z,12.93
2023-05-03T03:03:07.214Z,10.27
2023-05-03T03:05:37.367Z,9.37
2023-05-03T03:08:06.194Z,10.13
2023-05-03T03:10:34.964Z,8.00
2023-05-03T03:13:03.347Z,13.60
2023-05-03T03:15:31.832Z,11.27
2023-05-03T03:18:00.353Z,12.77
2023-05-03T03:20:28.814Z,7.80
2023-05-03T03:22:58.628Z,12.43
2023-05-03T03:25:27.176Z,9.03
2023-05-03T03:27:55.673Z,14.20
2023-05-03T03:30:23.834Z,11.43
2023-05-03T03:32:52.127Z,6.90
2023-05-03T03:35:21.588Z,12.37
2023-05-03T03:37:49.958Z,10.30
2023-05-03T03:40:19.826Z,12.60
2023-05-03T03:42:48.391Z,14.20
2023-05-03T03:45:16.454Z,9.67
2023-05-03T03:47:44.724Z,19.77
2023-05-03T03:50:13.026Z,16.07
2023-05-03T03:52:41.331Z,19.80
2023-05-03T03:55:10.607Z,13.83
2023-05-03T03:57:40.544Z,16.50
2023-05-03T04:00:11.886Z,12.37
2023-05-03T04:02:41.044Z,18.00
2023-05-03T04:05:09.993Z,18.73
2023-05-03T04:07:38.539Z,15.57
2023-05-03T04:10:07.718Z,11.30
2023-05-03T04:12:35.920Z,15.43
2023-05-03T04:15:06.258Z,17.77
2023-05-03T04:17:35.239Z,12.50
2023-05-03T04:20:08.459Z,26.70
2023-05-03T04:22:36.744Z,21.33
2023-05-03T04:25:05.468Z,18.40
2023-05-03T04:27:33.716Z,20.17
2023-05-03T04:30:08.075Z,18.00
2023-05-03T04:32:37.919Z,20.77
2023-05-03T04:35:09.760Z,19.37
2023-05-03T04:37:38.761Z,22.63
2023-05-03T04:40:09.775Z,19.83
2023-05-03T04:42:38.009Z,17.43
2023-05-03T04:45:09.903Z,19.37
2023-05-03T04:47:38.185Z,23.20
2023-05-03T04:50:08.061Z,23.90
2023-05-03T04:52:37.288Z,18.37
2023-05-03T04:55:06.623Z,22.67
2023-05-03T04:57:35.639Z,24.37
2023-05-03T05:00:07.763Z,30.63
2023-05-03T05:02:37.404Z,31.90
2023-05-03T05:05:05.952Z,31.70
2023-05-03T05:07:34.585Z,20.53
2023-05-03T05:10:03.059Z,20.73
2023-05-03T05:12:31.835Z,31.87
2023-05-03T05:15:00.094Z,17.03
2023-05-03T05:17:28.463Z,20.97
2023-05-03T05:19:58.176Z,24.70
2023-05-03T05:22:26.598Z,23.23
2023-05-03T05:24:54.836Z,18.77
2023-05-03T05:27:23.800Z,23.73
2023-05-03T05:29:52.427Z,15.70
2023-05-03T05:32:20.548Z,25.87
2023-05-03T05:34:53.112Z,30.10
2023-05-03T05:37:23.253Z,20.97
2023-05-03T05:39:51.600Z,26.67
2023-05-03T05:42:19.856Z,23.13
2023-05-03T05:44:48.096Z,21.73
2023-05-03T05:47:16.804Z,19.40
2023-05-03T05:49:45.155Z,20.73
2023-05-03T05:52:13.538Z,15.77
2023-05-03T05:54:43.362Z,22.23
2023-05-03T05:57:12.669Z,14.13
2023-05-03T05:59:41.064Z,18.60
2023-05-03T06:02:16.758Z,20.93
2023-05-03T06:04:45.587Z,20.17
2023-05-03T06:07:14.632Z,17.23
2023-05-03T06:09:44.392Z,20.30
2023-05-03T06:12:12.621Z,18.27
2023-05-03T06:14:46.267Z,16.73
2023-05-03T06:17:20.256Z,27.47
2023-05-03T06:19:49.459Z,16.50
2023-05-03T06:22:17.757Z,14.37
2023-05-03T06:24:47.812Z,21.70
2023-05-03T06:27:15.954Z,21.70
2023-05-03T06:29:45.018Z,22.63
2023-05-03T06:32:13.293Z,18.87
2023-05-03T06:34:41.559Z,11.43
2023-05-03T06:37:10.067Z,14.77
2023-05-03T06:39:38.602Z,15.97
2023-05-03T06:42:09.023Z,15.63
2023-05-03T06:44:37.205Z,14.53
2023-05-03T06:47:05.510Z,13.40
2023-05-03T06:49:34.171Z,14.30
2023-05-03T06:52:02.381Z,12.10
2023-05-03T06:54:30.993Z,13.80
2023-05-03T06:56:59.677Z,11.30
2023-05-03T06:59:29.464Z,11.70
2023-05-03T07:01:57.767Z,13.07
2023-05-03T07:04:25.959Z,10.83
2023-05-03T07:06:56.850Z,12.80
2023-05-03T07:09:41.353Z,10.13
2023-05-03T07:12:10.597Z,11.40
2023-05-03T07:14:43.234Z,4.33
2023-05-03T07:17:11.924Z,3.60
2023-05-03T07:19:40.325Z,9.57
2023-05-03T07:22:08.573Z,2.20
2023-05-03T07:24:36.840Z,2.67
2023-05-03T07:27:05.536Z,2.80
2023-05-03T07:29:34.095Z,0.90
2023-05-03T07:32:03.742Z,7.07
2023-05-03T07:34:32.879Z,5.73
2023-05-03T07:37:01.243Z,6.23
2023-05-03T07:39:29.506Z,4.70
2023-05-03T07:41:57.821Z,4.73
2023-05-03T07:44:26.228Z,3.07
2023-05-03T07:46:54.456Z,2.40
2023-05-03T07:49:24.449Z,5.10
2023-05-03T07:51:53.313Z,4.33
2023-05-03T07:54:22.008Z,3.67
2023-05-03T07:56:50.094Z,5.97
2023-05-03T07:59:18.272Z,7.13
2023-05-03T08:01:46.571Z,2.63
2023-05-03T08:04:15.450Z,6.27
2023-05-03T08:06:45.543Z,1.97
2023-05-03T08:09:14.158Z,1.33
2023-05-03T08:11:43.975Z,2.93
2023-05-03T08:14:12.924Z,1.23
2023-05-03T08:16:41.467Z,1.20
2023-05-03T08:19:09.555Z,1.37
2023-05-03T08:21:38.176Z,3.53
2023-05-03T08:24:08.613Z,1.87
2023-05-03T08:26:37.742Z,2.00
2023-05-03T08:29:06.049Z,0.80
2023-05-03T08:31:35.517Z,1.07
2023-05-03T08:34:04.107Z,1.17
2023-05-03T08:36:33.190Z,1.10
2023-05-03T08:39:02.207Z,2.80
2023-05-03T08:41:32.708Z,1.00
2023-05-03T08:44:04.420Z,0.97
2023-05-03T08:46:37.220Z,0.83
2023-05-03T08:49:06.911Z,1.07
2023-05-03T08:51:36.156Z,1.20
2023-05-03T08:54:04.220Z,0.60
2023-05-03T08:56:38.058Z,1.17
2023-05-03T08:59:09.339Z,3.60
2023-05-03T09:01:38.425Z,4.47
2023-05-03T09:04:07.828Z,1.07
2023-05-03T09:06:36.909Z,2.17
2023-05-03T09:09:08.005Z,0.67
2023-05-03T09:11:39.466Z,1.47
2023-05-03T09:14:12.444Z,2.77
2023-05-03T09:16:41.937Z,2.17
2023-05-03T09:19:12.004Z,3.53
2023-05-03T09:21:43.190Z,1.20
2023-05-03T09:24:16.105Z,4.10
2023-05-03T09:26:47.393Z,1.03
2023-05-03T09:29:30.602Z,4.00
2023-05-03T09:32:04.917Z,1.80
2023-05-03T09:34:33.501Z,1.00
2023-05-03T09:37:01.956Z,4.70
2023-05-03T09:39:30.727Z,1.20
2023-05-03T09:42:00.910Z,1.37
2023-05-03T09:44:43.102Z,0.90
2023-05-03T09:47:13.001Z,1.37
2023-05-03T09:49:41.405Z,2.93
2023-05-03T09:52:11.338Z,0.40
2023-05-03T09:54:40.927Z,2.13
2023-05-03T09:57:10.873Z,0.53
2023-05-03T09:59:40.662Z,0.97
2023-05-03T10:02:09.769Z,1.17
2023-05-03T10:04:43.556Z,7.37
2023-05-03T10:07:15.525Z,1.07
2023-05-03T10:09:45.978Z,0.93
2023-05-03T10:12:17.897Z,2.90
2023-05-03T10:14:48.652Z,1.97
2023-05-03T10:17:31.961Z,1.30
2023-05-03T10:20:14.147Z,2.40
2023-05-03T10:23:11.052Z,3.90
2023-05-03T10:25:41.183Z,0.40
2023-05-03T10:28:11.246Z,0.97
2023-05-03T10:30:40.711Z,6.13
2023-05-03T10:33:35.245Z,1.43
2023-05-03T10:36:07.746Z,1.80
2023-05-03T10:38:39.577Z,1.00
2023-05-03T10:41:07.957Z,0.30
2023-05-03T10:43:47.106Z,3.63
2023-05-03T10:46:35.009Z,0.70
2023-05-03T10:49:23.187Z,3.87
2023-05-03T10:51:51.830Z,2.93
2023-05-03T10:54:20.344Z,1.07
2023-05-03T10:56:53.413Z,2.57
2023-05-03T10:59:24.558Z,1.70
2023-05-03T11:01:54.956Z,1.93
2023-05-03T11:04:40.649Z,2.10
2023-05-03T11:07:10.538Z,3.23
2023-05-03T11:09:39.042Z,1.30
2023-05-03T11:12:09.963Z,1.37
2023-05-03T11:14:40.497Z,2.97
2023-05-03T11:17:08.730Z,0.73
2023-05-03T11:19:38.028Z,1.50
2023-05-03T11:22:06.708Z,2.63
2023-05-03T11:24:34.752Z,1.17
2023-05-03T11:27:08.381Z,1.20
2023-05-03T11:29:37.850Z,0.77
2023-05-03T11:32:09.713Z,0.70
2023-05-03T11:34:41.257Z,3.03
2023-05-03T11:37:11.137Z,2.13
2023-05-03T11:39:39.208Z,1.30
2023-05-03T11:42:08.594Z,0.30
2023-05-03T11:44:37.788Z,0.90
2023-05-03T11:47:07.898Z,1.47
2023-05-03T11:49:36.646Z,0.30
2023-05-03T11:52:05.043Z,0.70
2023-05-03T11:54:33.158Z,1.80
2023-05-03T11:57:02.083Z,0.57
2023-05-03T11:59:38.248Z,0.70
2023-05-03T12:02:09.708Z,0.20
2023-05-03T12:04:41.681Z,1.00
2023-05-03T12:07:12.087Z,0.60
2023-05-03T12:09:44.526Z,2.87
2023-05-03T12:12:25.064Z,3.90
2023-05-03T12:14:59.867Z,6.73
2023-05-03T12:17:44.106Z,1.33
2023-05-03T12:22:51.976Z,0.37
2023-05-03T12:25:21.748Z,1.33
2023-05-03T12:28:12.774Z,1.60
2023-05-03T12:30:45.797Z,3.33
2023-05-03T12:33:21.846Z,0.57
2023-05-03T12:35:53.508Z,1.20
2023-05-03T12:38:24.181Z,2.07
2023-05-03T12:40:54.591Z,0.63
2023-05-03T12:43:23.230Z,1.23
2023-05-03T12:46:09.345Z,0.50
2023-05-03T12:48:44.038Z,1.37
2023-05-03T12:53:47.407Z,1.80
2023-05-03T12:56:16.391Z,1.90
2023-05-03T12:59:07.501Z,0.50
2023-05-03T13:02:41.075Z,0.67
2023-05-03T13:07:00.205Z,0.60
2023-05-03T13:09:38.551Z,0.43
2023-05-03T13:12:18.511Z,0.83
2023-05-03T13:14:47.589Z,7.40
2023-05-03T13:17:16.082Z,1.40
2023-05-03T13:19:47.341Z,1.27
2023-05-03T13:22:16.436Z,3.40
2023-05-03T13:24:46.460Z,1.07
2023-05-03T13:27:14.980Z,4.37
2023-05-03T13:29:43.879Z,12.57
2023-05-03T13:32:13.276Z,0.60
2023-05-03T13:34:41.593Z,3.73
2023-05-03T13:37:11.701Z,1.47
2023-05-03T13:39:40.050Z,0.20
2023-05-03T13:42:08.310Z,2.00
2023-05-03T13:44:36.442Z,2.00
2023-05-03T13:47:04.632Z,0.63
2023-05-03T13:49:32.992Z,2.17
2023-05-03T13:52:01.226Z,2.23
2023-05-03T13:54:32.207Z,2.47
2023-05-03T13:57:01.768Z,2.87
2023-05-03T13:59:30.305Z,0.57
2023-05-03T14:01:58.402Z,0.30
2023-05-03T14:04:27.104Z,1.17
2023-05-03T14:06:55.494Z,1.47
2023-05-03T14:09:23.658Z,7.00
2023-05-03T14:11:55.109Z,2.00
2023-05-03T14:14:28.120Z,1.97
2023-05-03T14:16:56.303Z,1.63
2023-05-03T14:19:24.382Z,0.50
2023-05-03T14:21:52.816Z,2.13
2023-05-03T14:24:21.111Z,2.13
2023-05-03T14:26:49.242Z,0.83
2023-05-03T14:29:18.837Z,1.20
2023-05-03T14:31:47.088Z,1.00
2023-05-03T14:34:15.205Z,0.50
2023-05-03T14:36:44.033Z,2.00
2023-05-03T14:39:14.637Z,1.43
2023-05-03T14:41:45.746Z,1.13
2023-05-03T14:44:14.054Z,3.33
2023-05-03T14:46:43.852Z,2.37
2023-05-03T14:49:12.155Z,0.93
2023-05-03T14:51:42.921Z,1.13
2023-05-03T14:54:13.252Z,0.30
2023-05-03T14:56:42.183Z,0.30
2023-05-03T14:59:10.622Z,4.37
2023-05-03T15:01:39.041Z,0.40
2023-05-03T15:04:10.797Z,0.37
2023-05-03T15:06:41.426Z,2.13
2023-05-03T15:09:12.101Z,6.43
2023-05-03T15:11:40.885Z,3.93
2023-05-03T15:14:09.742Z,0.73
2023-05-03T15:16:38.677Z,1.40
2023-05-03T15:19:08.688Z,3.03
2023-05-03T15:21:47.341Z,2.17
2023-05-03T15:24:15.471Z,0.77
2023-05-03T15:26:43.741Z,2.17
2023-05-03T15:29:12.715Z,0.73
2023-05-03T15:31:41.316Z,1.00
2023-05-03T15:34:12.605Z,0.87
2023-05-03T15:36:41.236Z,1.53
2023-05-03T15:39:09.847Z,3.03
2023-05-03T15:41:37.978Z,0.93
2023-05-03T15:44:08.468Z,0.70
2023-05-03T15:46:36.801Z,1.17
2023-05-03T15:49:05.380Z,1.33
2023-05-03T15:51:35.364Z,1.30
2023-05-03T15:54:03.838Z,1.33
2023-05-03T15:56:32.370Z,2.93
2023-05-03T15:59:01.296Z,1.17
2023-05-03T16:01:29.623Z,0.70
2023-05-03T16:03:57.876Z,0.50
2023-05-03T16:06:26.444Z,0.93
2023-05-03T16:08:56.124Z,2.57
2023-05-03T16:11:24.393Z,2.20
2023-05-03T16:13:52.773Z,1.13
2023-05-03T16:16:21.174Z,2.10
2023-05-03T16:18:49.402Z,1.73
2023-05-03T16:21:17.710Z,1.97
2023-05-03T16:23:46.618Z,0.57
2023-05-03T16:26:16.258Z,1.97
2023-05-03T16:28:44.728Z,1.17
2023-05-03T16:31:14.174Z,1.10
2023-05-03T16:33:42.471Z,0.43
2023-05-03T16:36:11.024Z,3.63
2023-05-03T16:38:39.089Z,2.20
2023-05-03T16:41:07.461Z,1.33
2023-05-03T16:43:38.309Z,0.50
2023-05-03T16:46:06.871Z,0.33
2023-05-03T16:48:35.438Z,1.60
2023-05-03T16:51:03.912Z,2.30
2023-05-03T16:53:32.610Z,1.50
2023-05-03T16:56:01.796Z,2.27
2023-05-03T16:58:30.223Z,1.73
2023-05-03T17:00:59.923Z,1.80
2023-05-03T17:03:28.114Z,0.50
2023-05-03T17:05:56.563Z,1.13
2023-05-03T17:08:25.032Z,3.90
2023-05-03T17:10:54.385Z,1.63
2023-05-03T17:13:22.596Z,2.50
2023-05-03T17:15:50.695Z,2.07
2023-05-03T17:18:20.292Z,1.00
2023-05-03T17:20:48.692Z,0.50
2023-05-03T17:23:19.296Z,1.17
2023-05-03T17:25:48.847Z,1.87
2023-05-03T17:28:17.471Z,0.93
2023-05-03T17:30:45.671Z,0.97
2023-05-03T17:33:13.819Z,2.37
2023-05-03T17:35:43.338Z,0.87
2023-05-03T17:38:12.781Z,1.20
2023-05-03T17:40:43.248Z,1.00
2023-05-03T17:43:12.481Z,1.80
2023-05-03T17:45:43.017Z,2.03
2023-05-03T17:48:12.090Z,0.73
2023-05-03T17:50:41.941Z,1.10
2023-05-03T17:53:11.639Z,1.47
2023-05-03T17:55:40.730Z,0.70
2023-05-03T17:58:11.016Z,0.80
2023-05-03T18:00:39.739Z,0.63
2023-05-03T18:03:08.560Z,0.60
2023-05-03T18:05:38.248Z,0.73
2023-05-03T18:08:06.654Z,0.30
2023-05-03T18:10:36.352Z,1.33
2023-05-03T18:13:05.439Z,1.90
2023-05-03T18:15:33.625Z,0.30
2023-05-03T18:18:02.986Z,2.47
2023-05-03T18:20:31.365Z,0.83
2023-05-03T18:23:01.704Z,1.23
2023-05-03T18:25:33.534Z,0.60
2023-05-03T18:28:06.265Z,0.50
2023-05-03T18:30:37.808Z,1.43
2023-05-03T18:33:12.437Z,1.13
2023-05-03T18:35:41.703Z,5.17
2023-05-03T18:38:10.381Z,0.87
2023-05-03T18:40:38.855Z,0.70
2023-05-03T18:43:09.286Z,1.27
2023-05-03T18:45:39.186Z,0.97
2023-05-03T18:48:07.715Z,3.00
2023-05-03T18:50:38.443Z,0.73
2023-05-03T18:53:07.443Z,2.00
2023-05-03T18:55:35.455Z,4.50
2023-05-03T18:58:03.799Z,1.80
2023-05-03T19:00:33.623Z,3.03
2023-05-03T19:03:02.186Z,1.03
2023-05-03T19:05:30.897Z,1.37
2023-05-03T19:08:00.201Z,2.70
2023-05-03T19:10:28.526Z,1.77
2023-05-03T19:12:57.698Z,1.60
2023-05-03T19:15:26.026Z,5.27
2023-05-03T19:17:56.189Z,1.73
2023-05-03T19:20:24.528Z,2.00
2023-05-03T19:22:53.008Z,2.33
2023-05-03T19:25:21.246Z,1.90
2023-05-03T19:27:49.493Z,2.27
2023-05-03T19:30:17.929Z,3.20
2023-05-03T19:32:46.455Z,2.50
2023-05-03T19:35:16.385Z,3.43
2023-05-03T19:37:45.086Z,1.60
2023-05-03T19:40:14.494Z,1.57
2023-05-03T19:42:42.843Z,3.13
2023-05-03T19:45:11.579Z,2.83
2023-05-03T19:47:39.757Z,2.07
2023-05-03T19:50:08.734Z,3.27
2023-05-03T19:52:38.708Z,0.73
2023-05-03T19:55:08.447Z,1.33
2023-05-03T19:57:37.360Z,1.00
2023-05-03T20:00:07.246Z,1.27
2023-05-03T20:02:36.855Z,9.40
2023-05-03T20:05:05.984Z,2.40
2023-05-03T20:07:34.113Z,1.90
2023-05-03T20:10:04.064Z,1.80
2023-05-03T20:12:33.208Z,3.80
2023-05-03T20:15:01.699Z,2.13
2023-05-03T20:17:30.008Z,2.50
2023-05-03T20:20:07.616Z,2.87
2023-05-03T20:22:35.677Z,2.33
2023-05-03T20:25:06.097Z,1.50
2023-05-03T20:27:34.670Z,2.47
2023-05-03T20:30:04.582Z,1.27
2023-05-03T20:32:32.962Z,2.07
2023-05-03T20:35:01.400Z,1.70
2023-05-03T20:37:30.153Z,2.37
2023-05-03T20:39:58.518Z,1.53
2023-05-03T20:42:28.310Z,1.80
2023-05-03T20:44:56.412Z,4.20
2023-05-03T20:47:24.853Z,3.13
2023-05-03T20:49:53.016Z,4.20
2023-05-03T20:52:21.316Z,1.47
2023-05-03T20:54:49.580Z,1.50
2023-05-03T20:57:22.639Z,1.27
2023-05-03T20:59:52.750Z,2.97
2023-05-03T21:02:20.898Z,1.00
2023-05-03T21:04:49.248Z,1.73
2023-05-03T21:07:17.331Z,1.33
2023-05-03T21:09:45.609Z,3.57
2023-05-03T21:12:13.863Z,0.60
2023-05-03T21:14:42.351Z,3.50
2023-05-03T21:17:12.382Z,3.17
2023-05-03T21:19:41.172Z,1.50
2023-05-03T21:22:09.345Z,0.60
2023-05-03T21:24:37.516Z,2.93
2023-05-03T21:27:05.916Z,4.70
2023-05-03T21:29:33.968Z,1.07
2023-05-03T21:32:02.493Z,2.90
2023-05-03T21:34:32.548Z,0.80
2023-05-03T21:37:03.845Z,3.87
2023-05-03T21:39:32.853Z,7.03
2023-05-03T21:42:02.115Z,7.00
2023-05-03T21:44:33.072Z,4.20
2023-05-03T21:47:02.056Z,2.10
2023-05-03T21:49:32.232Z,3.50
2023-05-03T21:52:00.479Z,4.03
2023-05-03T21:54:28.667Z,0.70
2023-05-03T21:56:56.836Z,4.00
2023-05-03T21:59:25.238Z,4.50
2023-05-03T22:01:53.797Z,3.57
2023-05-03T22:04:21.962Z,4.80
2023-05-03T22:06:51.744Z,3.17
2023-05-03T22:09:20.002Z,0.90
2023-05-03T22:11:48.330Z,1.97
2023-05-03T22:14:16.397Z,2.47
2023-05-03T22:16:44.968Z,4.73
2023-05-03T22:19:13.804Z,4.80
2023-05-03T22:21:42.556Z,2.57
2023-05-03T22:24:12.455Z,3.97
2023-05-03T22:26:40.774Z,3.60
2023-05-03T22:29:09.299Z,3.70
2023-05-03T22:31:37.967Z,2.40
2023-05-03T22:34:06.301Z,4.23
2023-05-03T22:36:34.667Z,2.00
2023-05-03T22:39:05.521Z,3.23
2023-05-03T22:41:35.262Z,4.63
2023-05-03T22:44:03.650Z,5.37
2023-05-03T22:46:34.727Z,5.40
2023-05-03T22:49:04.126Z,2.97
2023-05-03T22:51:32.755Z,6.20
2023-05-03T22:54:01.025Z,7.10
2023-05-03T22:56:29.550Z,6.43
2023-05-03T22:58:59.294Z,3.77
2023-05-03T23:01:27.658Z,4.57
2023-05-03T23:03:56.387Z,4.57
2023-05-03T23:06:25.214Z,7.00
2023-05-03T23:08:53.249Z,3.17
2023-05-03T23:11:23.651Z,4.80
2023-05-03T23:13:52.130Z,2.53
2023-05-03T23:16:21.914Z,4.87
2023-05-03T23:18:50.148Z,2.93
2023-05-03T23:21:18.665Z,2.50
2023-05-03T23:23:47.080Z,3.13
2023-05-03T23:26:15.415Z,2.80
2023-05-03T23:28:44.125Z,4.93
2023-05-03T23:31:12.684Z,4.37
2023-05-03T23:33:42.777Z,12.37
2023-05-03T23:36:11.468Z,3.87
2023-05-03T23:38:39.882Z,3.50
2023-05-03T23:41:08.085Z,6.03
2023-05-03T23:43:36.524Z,2.80
2023-05-03T23:46:04.672Z,6.33
2023-05-03T23:48:32.936Z,3.13
2023-05-03T23:51:02.733Z,3.20
2023-05-03T23:53:30.820Z,4.37
2023-05-03T23:55:58.939Z,7.03
2023-05-03T23:58:27.378Z,4.37
